Tiempo atmosférico en la estación meteorológica de Toledo, Toledo (515 m.)



Fecha
DESCASC
Temp. máxima en grados centígrados (hora)
DESCASC
Temp. mínima en grados centígrados (hora)
DESCASC
Temp. media en grados centígrados
DESCASC
Racha de viento máxima en m/sg (hora)
DESCASC
Velocidad máxima media en intervalos de 10 minutos(hora)
DESCASC
Precipitaciones diarias en mm
DESCASC
Precipitaciones de 00:00 a 06:00 en mm
DESCASC
Precipitaciones de 06:00 a 12:00 en mm
DESCASC
Precipitaciones de 12:00 a 18:00 en mm
DESCASC
Precipitaciones de 18:00 a 24:00 en mm
DESCASC
22-11-2020 15.1 (15:50) 2.3 (08:20) 8.7 6.67 (10:10) 4.72 (01:50) 0 0 0 0 0
21-11-2020 17.5 (16:10) 4 (06:20) 10.8 6.94 (15:20) 4.72 (10:40) 0 0 0 0 0
20-11-2020 19 (16:00) 6.1 (08:30) 12.5 7.22 (15:00) 4.72 (19:20) 0 0 0 0 0
19-11-2020 21.8 (16:00) 8.3 (00:00) 15 5.28 (11:20) 3.89 (11:20) 0.2 0.2 0 0 0
18-11-2020 11.5 (16:10) 8.7 (00:00) 10.1 5 (08:10) 3.33 (08:10) 0.2 0.2 0 0 0
17-11-2020 13 (15:40) 8.4 (00:00) 10.7 4.44 (14:10) 2.78 (14:10) 0.2 0 0 0 0.2
16-11-2020 20.2 (14:50) 12.5 (00:00) 16.4 6.67 (15:00) 4.72 (11:30) 0 0 0 0 0
15-11-2020 20.1 (15:20) 11.1 (00:00) 15.6 6.67 (15:40) 4.44 (15:50) 0.2 0.2 0 0 0
14-11-2020 14.6 (14:40) 9.8 (00:00) 12.2 3.06 (04:10) 2.22 (04:10) 2.2 0 1 1.2 0
13-11-2020 18.1 (14:30) 6.2 (00:00) 12.2 3.89 (00:10) 2.5 (00:10) 0 0 0 0 0
12-11-2020 17.5 (16:40) 7.3 (00:00) 12.4 5.83 (15:00) 3.33 (14:50) 0 0 0 0 0
11-11-2020 17.6 (16:10) 3.3 (00:00) 10.5 7.78 (09:50) 5.56 (09:50) 0 0 0 0 0
10-11-2020 16.5 (16:40) 6.1 (00:00) 11.3 3.89 (11:10) 2.78 (11:00) 0.2 0 0.2 0 0
09-11-2020 18.6 (15:50) 10.3 (00:00) 14.5 6.11 (16:10) 4.44 (16:00) 3.4 3.4 0 0 0
08-11-2020 19.6 (14:50) 6.9 (00:00) 13.3 5.83 (15:00) 3.89 (11:00) 0 0 0 0 0
07-11-2020 17.7 (14:40) 10.5 (00:00) 14.1 11.94 (05:10) 7.78 (05:10) 6.2 4.8 0 1.4 0
06-11-2020 20 (14:50) 13.4 (00:00) 16.7 20.28 (11:20) 12.78 (11:30) 0.8 0 0 0 0.8
05-11-2020 15 (13:10) 10.2 (00:00) 12.6 16.39 (09:50) 9.72 (09:50) 4.8 0.2 1.8 2.8 0
04-11-2020 12.8 (17:30) 9.5 (00:00) 11.2 11.11 (20:20) 6.94 (23:00) 0.4 0 0 0.2 0.2
03-11-2020 17.1 (13:10) 11.3 (00:00) 14.2 9.72 (19:30) 6.39 (19:30) 0.6 0 0 0.6 0
02-11-2020 23.1 (14:00) 7.9 (00:00) 15.5 4.72 (14:00) 3.33 (17:00) 0 0 0 0 0
01-11-2020 23.1 (15:20) 7.8 (00:00) 15.5 5.83 (15:30) 3.89 (13:20) 0 0 0 0 0
31-10-2020 25.1 (16:40) 7.8 (00:00) 16.5 5.83 (15:20) 3.89 (13:10) 0 0 0 0 0
30-10-2020 22.6 (16:40) 5.3 (00:00) 14 5.28 (14:20) 3.33 (02:30) 0 0 0 0 0
29-10-2020 19.3 (13:30) 11.2 (00:00) 15.2 5.28 (14:40) 3.61 (11:30) 0 0 0 0 0
28-10-2020 18.6 (15:00) 9.8 (00:00) 14.2 6.94 (14:20) 5 (18:00) 0 0 0 0 0
27-10-2020 16 (16:10) 4.7 (00:00) 10.3 10.28 (13:40) 6.94 (14:40) 0 0 0 0 0

Gráficas

Temp. máximas Temp. mínimas Temp. medias Precipitaciones Rachas de viento máximas Velocidades máximas media en intervalos de 10 minutos

Datos horarios

Fecha y hora oficial Temperatura (ºC) Velocidad del viento (km/h) Dirección del viento Racha (km/h) Dirección de racha Precipitación (mm) Presión (hPa) Tendencia (hPa) Humedad (%)
2020-11-25 23:00:00 11.3 9 Este 16 Este 0.2 951.6 0.6 86
2020-11-25 22:00:00 12.2 7 Sudeste 19 Este 0 951.4 0.4 75
2020-11-25 21:00:00 12.7 10 Sudeste 20 Sur 0 951.1 0.6 73
2020-11-25 20:00:00 12.5 8 Sudeste 20 Sur 0 951 0 79
2020-11-25 19:00:00 12.9 11 Sur 26 Sur 0 951 -0.3 73
2020-11-25 18:00:00 14 12 Sudeste 17 Sur 0 950.5 -1.4 60
2020-11-25 17:00:00 14.6 9 Sudeste 15 Sur 0 951 -1.7 56
2020-11-25 16:00:00 16.2 10 Sur 20 Sur 0 951.3 -2.5 51
2020-11-25 15:00:00 16.7 9 Sudoeste 19 Sudoeste 0 951.9 -2.9 48
2020-11-25 14:00:00 16 8 Sudoeste 26 Sur 0 952.7 -- 52
2020-11-25 13:00:00 15.9 6 Sudoeste 15 Sudoeste 0 953.8 -- 58
2020-11-25 12:00:00 13.5 10 Sudeste 18 Sudeste 0 954.8 -- 67
2020-11-25 11:00:00 13.2 10 Sudeste 15 Sudeste 0 955.2 -- 68
2020-11-25 10:00:00 9.5 9 Sudeste 13 Sudeste 0 955.3 -- 81
2020-11-25 09:00:00 6.6 2 Sudeste 6 Este 0 955.6 -- 90
2020-11-25 08:00:00 5.7 3 Sudoeste 5 Sudeste 0 955.7 -- 92
2020-11-25 07:00:00 5.6 2 Oeste 5 Oeste 0 956 -- 91
2020-11-25 06:00:00 5.3 2 Sudeste 4 Este 0 956 -- 92
2020-11-25 05:00:00 5.5 0 Calma 11 Este 0 956.4 -- 90
2020-11-25 04:00:00 5.5 0 Calma 7 Este 0 956.9 -- 90
2020-11-25 03:00:00 5.6 5 Sur 8 Sudoeste 0 957.3 -- 90
2020-11-25 02:00:00 6.1 3 Sudoeste 9 Este 0 957.6 -- 86
2020-11-25 01:00:00 6.7 4 Sudeste 9 Este 0 958.2 -- 85
2020-11-25 00:00:00 7 4 Sudeste 6 Este 0 958.6 -- 82
2020-11-24 23:00:00 7.6 0 Calma 5 Nordeste 0 959 -- 78
2020-11-24 22:00:00 7.7 0 Calma 8 Sudoeste 0 959.5 -- 77
2020-11-24 21:00:00 8.4 0 Calma 3 Noroeste 0 959.7 -- 75
2020-11-24 20:00:00 9.1 0 Calma 3 Sur 0 959.8 -- 71
2020-11-24 19:00:00 10.4 2 Noroeste 5 Noroeste 0 959.8 -- 66
2020-11-24 18:00:00 12.2 5 Oeste 9 Oeste 0 959.8 -- 60
2020-11-24 17:00:00 13.4 5 Oeste 10 Noroeste 0 959.7 -- 53
2020-11-24 16:00:00 14.9 5 Oeste 9 Oeste 0 959.7 -- 50
2020-11-24 15:00:00 15 4 Sur 10 Sur 0 960.2 -- 52
2020-11-24 14:00:00 13 5 Sudeste 10 Sudeste 0 961.2 -- 59
2020-11-24 13:00:00 10.8 4 Oeste 9 Sudeste 0 962.1 -- 66
2020-11-24 12:00:00 7.4 5 Sudeste 10 Sudeste 0 963.3 -- 78
2020-11-24 11:00:00 5.3 7 Sudeste 12 Sudeste 0 963.8 -- 83
2020-11-24 10:00:00 3.6 7 Sudeste 10 Sudeste 0 964 -- 91
2020-11-24 09:00:00 1.3 0 Calma 12 Este 0 963.6 -- 96
2020-11-24 08:00:00 0.7 5 Sudeste 8 Sudeste 0 963.3 -- 97
2020-11-24 07:00:00 1 0 Calma 6 Este 0 963.2 -- 97
2020-11-24 06:00:00 1.2 0 Calma 3 Sur 0 963.1 -- 97
2020-11-24 05:00:00 1.7 3 Sur 5 Sur 0 963.2 -- 94
2020-11-24 04:00:00 2.3 3 Este 10 Sudeste 0 963.6 -- 93
2020-11-24 03:00:00 3.2 7 Sudeste 12 Sudeste 0 963.8 -- 92
2020-11-24 02:00:00 3.8 3 Sudeste 8 Sudeste 0 964.2 -- 91
2020-11-24 01:00:00 4.9 0 Calma 5 Sur 0 964.9 -- 87
2020-11-24 00:00:00 6 3 Nordeste 4 Norte 0 965 -- 88
2020-11-23 23:00:00 7.1 2 Sur 6 Sudeste 0 965.2 -- 81
2020-11-23 22:00:00 8.3 4 Este 8 Este 0 965.1 -- 78
2020-11-23 21:00:00 9.6 2 Sur 8 Este 0 965.1 -- 71
2020-11-23 20:00:00 10.2 8 Este 9 Este 0 965.1 -- 68
2020-11-23 19:00:00 11.3 7 Nordeste 10 Nordeste 0 964.8 -- 64
2020-11-23 18:00:00 13.7 6 Este 8 Este 0 964.6 -- 54
2020-11-23 17:00:00 15.7 6 Este 10 Este 0 964.6 -- 48
2020-11-23 16:00:00 16.3 9 Este 19 Sudeste 0 964.6 -- 46
2020-11-23 15:00:00 15.9 10 Sudeste 18 Sudeste 0 965.2 -- 50
2020-11-23 14:00:00 14.8 12 Sudeste 17 Sudeste 0 965.9 -- 56
2020-11-23 13:00:00 12.7 13 Sudeste 17 Este 0 966.3 -- 61
2020-11-23 12:00:00 10.3 9 Sudeste 16 Sudeste 0 967.3 -- 69
2020-11-23 11:00:00 7.9 8 Sudeste 14 Sudeste 0 967.8 -- 75
2020-11-23 10:00:00 5.5 9 Sudeste 15 Este 0 967.5 -- 87
2020-11-23 09:00:00 2 5 Sudeste 10 Sudeste 0 967.2 -- 99
2020-11-23 08:00:00 0.4 4 Sudeste 7 Este 0 966.9 -- 98
2020-11-23 07:00:00 1.1 0 Calma 8 Este 0 966.7 -- 98
2020-11-23 06:00:00 1.2 4 Sudeste 9 Este 0 966.5 -- 98
2020-11-23 05:00:00 2.1 2 Este 5 Este 0 966.3 -- 96
2020-11-23 04:00:00 3.3 0 Calma 15 Este 0 966.4 -- 93
2020-11-23 03:00:00 3.6 7 Este 13 Este 0 966.5 -- 94
2020-11-23 02:00:00 3.9 2 Sur 4 Sur 0 966.7 -- 96
2020-11-23 01:00:00 4.6 0 Calma 7 Este 0 966.9 -- 93
2020-11-23 00:00:00 5.6 5 Este 8 Este 0 967 -- 89
2020-11-22 23:00:00 6.8 0 Calma 2 Sur 0 966.8 -- 87
2020-11-22 22:00:00 7.7 0 Calma 6 Este 0 966.6 -- 83
2020-11-22 21:00:00 8.3 3 Este 5 Este 0 966.5 -- 80
2020-11-22 20:00:00 9.5 2 Este 8 Nordeste 0 966.3 -- 75
2020-11-22 19:00:00 10.6 5 Nordeste 7 Este 0 965.7 -- 71
2020-11-22 18:00:00 12.9 5 Este 8 Sudeste 0 965.6 -- 63
2020-11-22 17:00:00 14.7 5 Sudeste 10 Sudeste 0 965.6 -- 56
2020-11-22 16:00:00 15 6 Este 10 Este 0 965.6 -- 55
2020-11-22 15:00:00 13.7 5 Sudeste 16 Sudeste 0 966 -- 59
2020-11-22 14:00:00 12 13 Sudeste 18 Este 0 966.5 -- 67
2020-11-22 13:00:00 9.6 12 Sudeste 18 Sudeste 0 967.4 -- 80
2020-11-22 12:00:00 6.5 12 Este 21 Este 0 968.2 -- 93
2020-11-22 11:00:00 5.2 13 Este 24 Sudeste 0 968.4 -- 98
2020-11-22 10:00:00 4.3 14 Sudeste 23 Sudeste 0 968.3 -- 100
2020-11-22 09:00:00 2.6 5 Sudeste 11 Este 0 968 -- 96
2020-11-22 08:00:00 2.5 4 Este 10 Sudeste 0 967.6 -- 96
2020-11-22 07:00:00 3.4 9 Este 15 Sudeste 0 967.3 -- 93
2020-11-22 06:00:00 3.8 7 Este 12 Este 0 967.3 -- 91
2020-11-22 05:00:00 4.2 9 Este 14 Este 0 967.2 -- 89
2020-11-22 04:00:00 4.8 7 Este 12 Este 0 967.1 -- 86
2020-11-22 03:00:00 6 9 Este 22 Este 0 966.9 -- 82
2020-11-22 02:00:00 6.2 16 Este 22 Este 0 967 -- 82
2020-11-22 01:00:00 6.6 6 Sudeste 12 Este 0 967.2 -- 81
2020-11-22 00:00:00 7.7 6 Este 13 Este 0 967 -- 77
2020-11-21 23:00:00 8.1 3 Sudoeste 10 Este 0 967.1 -- 78
2020-11-21 22:00:00 9.3 5 Este 13 Este 0 966.9 -- 74
2020-11-21 21:00:00 10 8 Este 12 Este 0 966.7 -- 70
2020-11-21 20:00:00 11.3 10 Este 12 Este 0 966.3 -- 61
2020-11-21 19:00:00 12.2 5 Este 16 Nordeste 0 966.2 -- 59
2020-11-21 18:00:00 14.7 9 Nordeste 14 Nordeste 0 965.7 -- 52
2020-11-21 17:00:00 16.9 11 Este 20 Este 0 965.3 -- 48
2020-11-21 16:00:00 17.4 15 Este 25 Este 0 965.1 -- 46
2020-11-21 15:00:00 17.1 14 Este 23 Este 0 965.1 -- 49
2020-11-21 14:00:00 16 11 Este 22 Este 0 965.7 -- 48
2020-11-21 13:00:00 14.4 9 Este 19 Este 0 966.5 -- 46
2020-11-21 12:00:00 13.1 9 Sudeste 18 Sudeste 0 967 -- 44
2020-11-21 11:00:00 10.5 13 Este 23 Este 0 967.2 -- 48
2020-11-21 10:00:00 7.4 3 Sur 8 Este 0 967.1 -- 65
2020-11-21 09:00:00 5.1 3 Sudeste 10 Este 0 966.7 -- 73
2020-11-21 08:00:00 4.9 3 Nordeste 8 Este 0 966.3 -- 63
2020-11-21 07:00:00 4.9 6 Este 8 Este 0 966.2 -- 68
2020-11-21 06:00:00 4.4 2 Noroeste 6 Este 0 965.9 -- 76
2020-11-21 05:00:00 5.2 2 Sudeste 12 Este 0 966 -- 74
2020-11-21 04:00:00 7.2 8 Este 12 Este 0 966 -- 54
2020-11-21 03:00:00 7.6 4 Este 19 Nordeste 0 966.1 -- 62
2020-11-21 02:00:00 8.6 11 Este 15 Este 0 966.5 -- 58
2020-11-21 01:00:00 9.1 8 Este 14 Este 0 966.9 -- 58
2020-11-21 00:00:00 9 4 Sudeste 9 Este 0 967 -- 59
2020-11-20 23:00:00 9.2 3 Norte 7 Nordeste 0 967.1 -- 60
2020-11-20 22:00:00 10.4 4 Nordeste 8 Sur 0 966.8 -- 56
2020-11-20 21:00:00 11.1 3 Sur 9 Sur 0 966.4 -- 54
2020-11-20 20:00:00 12.9 4 Sudeste 21 Nordeste 0 966.2 -- 44
2020-11-20 19:00:00 14.4 13 Nordeste 17 Nordeste 0 966.1 -- 39
2020-11-20 18:00:00 15.3 14 Nordeste 22 Nordeste 0 966.3 -- 38
2020-11-20 17:00:00 18.1 14 Nordeste 24 Nordeste 0 966.4 -- 30
2020-11-20 16:00:00 18.9 13 Este 24 Este 0 966.3 -- 25
2020-11-20 15:00:00 17.9 13 Este 26 Este 0 967.2 -- 37
2020-11-20 14:00:00 16.8 8 Nordeste 19 Este 0 967.9 -- 45
2020-11-20 13:00:00 15.3 9 Este 19 Sudeste 0 968.8 -- 51
2020-11-20 12:00:00 13.9 13 Sudeste 18 Sudeste 0 969.7 -- 53
2020-11-20 11:00:00 12.9 7 Sudeste 10 Sudeste 0 969.6 -- 67
2020-11-20 10:00:00 10 4 Sur 6 Sur 0 969.8 -- 89
2020-11-20 09:00:00 7.5 4 Nordeste 6 Nordeste 0 969.5 -- 99
2020-11-20 08:00:00 6.3 0 Calma 7 Sur 0 969.3 -- 99
2020-11-20 07:00:00 7.2 4 Este 6 Este 0 969.5 -- 99
2020-11-20 06:00:00 7.1 3 Sur 6 Sur 0 969.5 -- 95
2020-11-20 05:00:00 7.9 0 Calma 8 Este 0 969.6 -- 97
2020-11-20 04:00:00 8.8 2 Este 8 Nordeste 0 970 -- 92
2020-11-20 03:00:00 9 4 Sur 11 Nordeste 0 970 -- 94
2020-11-20 02:00:00 10.5 3 Nordeste 7 Nordeste 0 970.7 -- 86
2020-11-20 01:00:00 11.2 2 Sudeste 9 Norte 0 970.9 -- 89
2020-11-20 00:00:00 12.7 5 Norte 7 Norte 0 970.9 -- 84
2020-11-19 23:00:00 12.3 2 Oeste 10 Sur 0 971 -- 91
2020-11-19 22:00:00 13.6 2 Nordeste 7 Este 0 970.8 -- 87
2020-11-19 21:00:00 14.9 2 Norte 6 Noroeste 0 970.3 -- 81
2020-11-19 20:00:00 15.6 2 Sudoeste 4 Sudoeste 0 970.1 -- 77
2020-11-19 19:00:00 16.9 4 Noroeste 9 Noroeste 0 970 -- 71
2020-11-19 18:00:00 18.6 6 Noroeste 9 Noroeste 0 969.5 -- 64
2020-11-19 17:00:00 21.5 5 Sudoeste 12 Oeste 0 969.1 -- 55
2020-11-19 16:00:00 21.8 4 Sudoeste 10 Norte 0 969.5 -- 53
2020-11-19 15:00:00 20.5 7 Sur 14 Sudeste 0 969.7 -- 56
2020-11-19 14:00:00 19.2 6 Sur 14 Sur 0 970.4 -- 61
2020-11-19 13:00:00 16.6 4 Sur 10 Sudeste 0 971 -- 74
2020-11-19 12:00:00 12.2 6 Sudeste 19 Sudeste 0 971.7 -- 98
2020-11-19 11:00:00 10.8 8 Sudeste 13 Sur 0 971.6 -- 100
2020-11-19 10:00:00 9.6 3 Nordeste 17 Este 0 970.5 -- 100
2020-11-19 09:00:00 8.7 7 Sudeste 12 Este 0 970.1 -- 100
2020-11-19 08:00:00 8.7 7 Este 14 Este 0 969.6 -- 100
2020-11-19 07:00:00 8.7 9 Este 15 Sudeste 0 969.1 -- 100
2020-11-19 06:00:00 8.8 6 Sudeste 11 Sudeste 0 968.6 -- 100
2020-11-19 05:00:00 8.6 6 Este 14 Sudeste 0 968.3 -- 100
2020-11-19 04:00:00 8.6 6 Este 11 Este 0 968.3 -- 100
2020-11-19 03:00:00 8.5 4 Este 7 Este 0 968.3 -- 100
2020-11-19 02:00:00 8.6 6 Nordeste 14 Este 0 968.5 -- 100
2020-11-19 01:00:00 9.7 6 Sudeste 9 Sudeste 0.2 968.6 -- 100
2020-11-19 00:00:00 9.8 4 Sur 9 Norte 0 968.8 -- 100
2020-11-18 23:00:00 9.7 3 Norte 7 Este 0 968.7 -- 100
2020-11-18 22:00:00 10 2 Norte 5 Noroeste 0 968.2 -- 100
2020-11-18 21:00:00 10.3 3 Norte 5 Norte 0 967.8 -- 100
2020-11-18 20:00:00 10.5 4 Este 11 Sudeste 0 967.6 -- 100
2020-11-18 19:00:00 10.7 4 Sudeste 10 Sudeste 0 967.3 -- 100
2020-11-18 18:00:00 10.9 8 Sudeste 12 Sur 0 966.8 -- 100
2020-11-18 17:00:00 11.3 6 Sur 8 Sur 0 966.7 -- 100
2020-11-18 16:00:00 11.4 3 Nordeste 9 Este 0 966.7 -- 100
2020-11-18 15:00:00 11.3 3 Nordeste 11 Sudeste 0 967 -- 100
2020-11-18 14:00:00 10.7 8 Este 14 Sudeste 0 967.3 -- 100
2020-11-18 13:00:00 10.3 6 Este 12 Sudeste 0 968.1 -- 100
2020-11-18 12:00:00 9.7 7 Este 13 Este 0 968.7 -- 100
2020-11-18 11:00:00 9.3 6 Este 15 Este 0 968.7 -- 100
2020-11-18 10:00:00 8.9 7 Este 17 Este 0 968.3 -- 100
2020-11-18 09:00:00 8.7 11 Este 18 Sudeste 0 967.9 -- 100
2020-11-18 08:00:00 8.9 9 Sudeste 17 Este 0 967.4 -- 100
2020-11-18 07:00:00 9 10 Este 14 Este 0 967.2 -- 100
2020-11-18 06:00:00 9.4 6 Este 12 Este 0 967 -- 100
2020-11-18 05:00:00 9.7 7 Nordeste 11 Este 0 966.9 -- 100
2020-11-18 04:00:00 10.1 8 Este 12 Sudeste 0.2 966.9 -- 100
2020-11-18 03:00:00 10.6 5 Este 12 Sudeste 0 966.9 -- 100
2020-11-18 02:00:00 10.8 4 Este 10 Nordeste 0 966.9 -- 100
2020-11-18 01:00:00 10.9 3 Este 9 Este 0 967.2 -- 100
2020-11-18 00:00:00 10.9 5 Este 10 Este 0 967.3 -- 100
2020-11-17 23:00:00 10.9 7 Sudeste 12 Sudeste 0 967.3 -- 100
2020-11-17 22:00:00 11.2 6 Sudeste 12 Este 0 967.1 -- 100
2020-11-17 21:00:00 11.9 5 Este 9 Este 0.2 966.9 -- 100
2020-11-17 20:00:00 11.9 0 Calma 5 Oeste 0 966.6 -- 100
2020-11-17 19:00:00 11.8 3 Norte 6 Nordeste 0 966.3 -- 100
2020-11-17 18:00:00 12.2 2 Este 12 Este 0 966.1 -- 100
2020-11-17 17:00:00 12.6 7 Este 11 Sudeste 0 966 -- 99
2020-11-17 16:00:00 12.9 6 Este 11 Este 0 965.9 -- 99
2020-11-17 15:00:00 12.7 9 Este 16 Este 0 966.1 -- 98
2020-11-17 14:00:00 12.6 8 Este 13 Este 0 966.4 -- 99
2020-11-17 13:00:00 12.4 7 Sudeste 12 Sur 0 967 -- 99
2020-11-17 12:00:00 12.2 4 Este 7 Este 0 967.5 -- 100
2020-11-17 11:00:00 11.6 3 Norte 9 Sudeste 0 967.6 -- 100
2020-11-17 10:00:00 10.9 5 Este 6 Este 0 967.3 -- 100
2020-11-17 09:00:00 10 4 Sudeste 8 Este 0 966.8 -- 100
2020-11-17 08:00:00 9.7 4 Sudeste 8 Sudeste 0 966.2 -- 100
2020-11-17 07:00:00 9.2 5 Este 9 Este 0 965.9 -- 100
2020-11-17 06:00:00 8.6 5 Este 8 Sudeste 0 965.7 -- 100
2020-11-17 05:00:00 9.5 2 Sur 6 Este 0 965.3 -- 100
2020-11-17 04:00:00 9.6 4 Este 9 Este 0 965.5 -- 100
2020-11-17 03:00:00 10.9 0 Calma 6 Este 0 965.5 -- 100
2020-11-17 02:00:00 11 2 Nordeste 7 Sur 0 965.6 -- 100
2020-11-17 01:00:00 12.3 0 Calma 8 Norte 0 965.8 -- 98
2020-11-17 00:00:00 12.5 3 Oeste 5 Oeste 0 965.7 -- 97
2020-11-16 23:00:00 12.7 2 Norte 3 Sudoeste 0 965.5 -- 97
2020-11-16 22:00:00 13.5 0 Calma 5 Sur 0 965.5 -- 93
2020-11-16 21:00:00 14.2 4 Noroeste 6 Noroeste 0 965.1 -- 90
2020-11-16 20:00:00 14.8 2 Noroeste 5 Noroeste 0 964.6 -- 88
2020-11-16 19:00:00 15.7 5 Noroeste 8 Noroeste 0 964 -- 84
2020-11-16 18:00:00 17.3 6 Noroeste 19 Noroeste 0 963.5 -- 78
2020-11-16 17:00:00 18.8 14 Noroeste 21 Oeste 0 963.2 -- 73
2020-11-16 16:00:00 19.8 16 Noroeste 23 Oeste 0 962.9 -- 68
2020-11-16 15:00:00 19.9 14 Oeste 24 Noroeste 0 963.2 -- 68
2020-11-16 14:00:00 19.8 13 Oeste 22 Oeste 0 963.6 -- 70
2020-11-16 13:00:00 19.1 13 Oeste 21 Noroeste 0 963.8 -- 74
2020-11-16 12:00:00 18.3 15 Oeste 23 Oeste 0 964.1 -- 77
2020-11-16 11:00:00 17.7 12 Oeste 19 Oeste 0 963.8 -- 81
2020-11-16 10:00:00 15.7 5 Noroeste 8 Noroeste 0 963.6 -- 99
2020-11-16 09:00:00 13.6 4 Sudeste 6 Sur 0 963 -- 100
2020-11-16 08:00:00 13.3 0 Calma 5 Sur 0 962.5 -- 100
2020-11-16 07:00:00 12.9 0 Calma 4 Este 0 962.2 -- 100
2020-11-16 06:00:00 13.1 2 Sudeste 3 Sudeste 0 961.6 -- 100
2020-11-16 05:00:00 13.3 0 Calma 5 Norte 0 961.3 -- 100
2020-11-16 04:00:00 13.5 3 Norte 7 Norte 0 961.4 -- 100
2020-11-16 03:00:00 13.7 2 Nordeste 9 Nordeste 0 961.6 -- 99
2020-11-16 02:00:00 13.9 8 Nordeste 10 Nordeste 0 961.7 -- 99
2020-11-16 01:00:00 14.6 4 Sur 12 Norte 0 962.1 -- 96
2020-11-16 00:00:00 14.7 9 Nordeste 10 Nordeste 0 962 -- 97
2020-11-15 23:00:00 15.6 4 Norte 5 Norte 0 961.5 -- 92
2020-11-15 22:00:00 15.4 2 Norte 4 Norte 0 961.2 -- 93
2020-11-15 21:00:00 15.2 2 Sudoeste 5 Noroeste 0 961.3 -- 96
2020-11-15 20:00:00 15.8 3 Noroeste 5 Sudoeste 0 961.4 -- 95
2020-11-15 19:00:00 16.5 3 Sudoeste 8 Sudoeste 0 961 -- 93
2020-11-15 18:00:00 17.5 5 Oeste 14 Noroeste 0 961.3 -- 87
2020-11-15 17:00:00 18.8 11 Noroeste 21 Oeste 0 960.9 -- 82
2020-11-15 16:00:00 19.7 14 Oeste 24 Noroeste 0 960.7 -- 75
2020-11-15 15:00:00 19.2 8 Oeste 15 Oeste 0 960.6 -- 81
2020-11-15 14:00:00 17.8 12 Noroeste 17 Noroeste 0 961.1 -- 83
2020-11-15 13:00:00 16.7 5 Sudoeste 8 Sudoeste 0 961.6 -- 87
2020-11-15 12:00:00 15.6 0 Calma 6 Sur 0 961.7 -- 91
2020-11-15 11:00:00 14.9 3 Sudoeste 5 Oeste 0 961.9 -- 97
2020-11-15 10:00:00 12.5 3 Sur 6 Sur 0 961.9 -- 100
2020-11-15 09:00:00 11.4 3 Noroeste 7 Este 0 961.6 -- 100
2020-11-15 08:00:00 11.2 2 Sudeste 13 Este 0 961 -- 100
2020-11-15 07:00:00 11.1 8 Este 12 Este 0 960.9 -- 100
2020-11-15 06:00:00 11.2 2 Nordeste 12 Este 0 960.9 -- 100
2020-11-15 05:00:00 11.9 5 Este 7 Este 0 960.6 -- 100
2020-11-15 04:00:00 12.2 5 Oeste 7 Oeste 0 961.1 -- 100
2020-11-15 03:00:00 12.4 3 Noroeste 8 Oeste 0.2 961 -- 100
2020-11-15 02:00:00 12.7 5 Oeste 12 Oeste 0 961.5 -- 100
2020-11-15 01:00:00 12.8 7 Oeste 13 Oeste 0 961.6 -- 100
2020-11-15 00:00:00 13.2 5 Noroeste 9 Noroeste 0 961.6 -- 100
2020-11-14 23:00:00 13.2 2 Oeste 4 Sur 0 961.5 -- 100
2020-11-14 22:00:00 13.3 4 Norte 6 Norte 0 961.5 -- 100
2020-11-14 21:00:00 13.6 3 Sudeste 8 Sudeste 0 961.1 -- 100
2020-11-14 20:00:00 13.5 3 Nordeste 5 Nordeste 0 961 -- 100
2020-11-14 19:00:00 13.6 0 Calma 8 Sudeste 0 960.5 -- 100
2020-11-14 18:00:00 14 3 Sur 5 Sur 0 960 -- 99
2020-11-14 17:00:00 14.3 2 Sur 4 Sur 0 959.8 -- 98
2020-11-14 16:00:00 14.3 3 Sudeste 5 Sudeste 0.2 959.7 -- 97
2020-11-14 15:00:00 14.5 2 Este 5 Sudeste 1 959.8 -- 94
2020-11-14 14:00:00 14.4 3 Este 8 Este 0 960.1 -- 92
2020-11-14 13:00:00 13.5 5 Este 9 Sudeste 0 960.5 -- 96
2020-11-14 12:00:00 12.4 2 Sudeste 10 Este 0.2 961.1 -- 98
2020-11-14 11:00:00 12.1 2 Sur 4 Sur 0 961.1 -- 98
2020-11-14 10:00:00 11.2 0 Calma 5 Sur 0.4 960.8 -- 99
2020-11-14 09:00:00 10.4 0 Calma 4 Norte 0.4 960.5 -- 99
2020-11-14 08:00:00 10.1 2 Sudeste 6 Este 0 959.9 -- 97
2020-11-14 07:00:00 10.2 3 Sudeste 6 Sur 0 959.5 -- 97
2020-11-14 06:00:00 10.1 0 Calma 3 Nordeste 0 959.5 -- 96
2020-11-14 05:00:00 10.1 0 Calma 11 Sudeste 0 959.4 -- 95
2020-11-14 04:00:00 9.9 4 Este 8 Este 0 959.8 -- 95
2020-11-14 03:00:00 10 4 Sur 9 Este 0 960.1 -- 93
2020-11-14 02:00:00 10.7 2 Sudeste 9 Este 0 960.4 -- 90
2020-11-14 01:00:00 11.4 0 Calma 5 Noroeste 0 960.8 -- 87
2020-11-14 00:00:00 11.2 3 Noroeste 5 Noroeste 0 961.2 -- 89
2020-11-13 23:00:00 11.3 0 Calma 3 Este 0 961 -- 89
2020-11-13 22:00:00 11.4 0 Calma 6 Nordeste 0 960.8 -- 87
2020-11-13 21:00:00 11.8 0 Calma 4 Sur 0 960.7 -- 85
2020-11-13 20:00:00 12.5 2 Este 5 Norte 0 960.5 -- 81
2020-11-13 19:00:00 13.8 3 Noroeste 5 Norte 0 960.1 -- 75
2020-11-13 18:00:00 15 2 Nordeste 8 Este 0 959.7 -- 70
2020-11-13 17:00:00 16.1 5 Nordeste 9 Norte 0 959.4 -- 67
2020-11-13 16:00:00 16.7 4 Sudeste 12 Sudeste 0 959.3 -- 65
2020-11-13 15:00:00 17.5 7 Sur 10 Sur 0 959.7 -- 61
2020-11-13 14:00:00 17.4 5 Oeste 9 Sudoeste 0 960.4 -- 58
2020-11-13 13:00:00 15.6 5 Sudoeste 10 Sudeste 0 960.9 -- 70
2020-11-13 12:00:00 13.2 6 Sudeste 11 Sudeste 0 961.5 -- 79
2020-11-13 11:00:00 10.7 4 Oeste 6 Oeste 0 961.5 -- 88
2020-11-13 10:00:00 8.8 2 Sur 6 Sur 0 961.4 -- 95
2020-11-13 09:00:00 6.9 0 Calma 5 Noroeste 0 960.8 -- 100
2020-11-13 08:00:00 6.3 4 Nordeste 5 Nordeste 0 960.4 -- 100
2020-11-13 07:00:00 6.5 4 Sur 5 Sudeste 0 960 -- 98
2020-11-13 06:00:00 6.7 0 Calma 4 Sudoeste 0 959.9 -- 99
2020-11-13 05:00:00 7.2 0 Calma 2 Sur 0 959.7 -- 97
2020-11-13 04:00:00 7.8 0 Calma 5 Sudeste 0 959.6 -- 94
2020-11-13 03:00:00 8.5 4 Sudeste 11 Sudeste 0 959.8 -- 92
2020-11-13 02:00:00 9.2 3 Sur 8 Este 0 960.1 -- 91
2020-11-13 01:00:00 9.4 5 Este 14 Este 0 960.2 -- 94
2020-11-13 00:00:00 9.8 8 Este 13 Sudeste 0 960.3 -- 94
2020-11-12 23:00:00 10.2 5 Este 7 Este 0 960.3 -- 93
2020-11-12 22:00:00 10.7 4 Sudeste 5 Este 0 960.2 -- 89
2020-11-12 21:00:00 11.4 4 Este 10 Nordeste 0 960.3 -- 86
2020-11-12 20:00:00 12.2 6 Nordeste 11 Nordeste 0 960.5 -- 83
2020-11-12 19:00:00 13.6 9 Nordeste 13 Nordeste 0 960.1 -- 77
2020-11-12 18:00:00 15 5 Este 14 Sudeste 0 959.8 -- 72
2020-11-12 17:00:00 17.2 10 Este 20 Este 0 959.7 -- 62
2020-11-12 16:00:00 17.2 10 Este 19 Nordeste 0 959.9 -- 64
2020-11-12 15:00:00 16.7 12 Este 21 Este 0 960.3 -- 65
2020-11-12 14:00:00 15.7 9 Este 15 Este 0 961.1 -- 70
2020-11-12 13:00:00 14.2 9 Este 15 Este 0 961.9 -- 77
2020-11-12 12:00:00 12.3 6 Sudeste 13 Este 0 962.9 -- 85
2020-11-12 11:00:00 9.9 11 Sudeste 16 Sudeste 0 963 -- 92
2020-11-12 10:00:00 8.1 4 Este 12 Este 0 963.3 -- 98
2020-11-12 09:00:00 8 5 Sudeste 13 Este 0 963.3 -- 97
2020-11-12 08:00:00 7.6 6 Este 17 Este 0 962.9 -- 98
2020-11-12 07:00:00 7.5 8 Este 13 Este 0 962.4 -- 99
2020-11-12 06:00:00 7.4 5 Sudeste 12 Este 0 962.2 -- 98
2020-11-12 05:00:00 7.8 5 Sudeste 10 Sudeste 0 962.2 -- 99
2020-11-12 04:00:00 8.2 5 Este 10 Sudeste 0 962.8 -- 99
2020-11-12 03:00:00 8.6 5 Este 10 Sudeste 0 963.3 -- 99
2020-11-12 02:00:00 8.8 4 Sudeste 7 Este 0 963.6 -- 99
2020-11-12 01:00:00 9.1 0 Calma 4 Sudeste 0 963.9 -- 98
2020-11-12 00:00:00 9.6 4 Este 5 Sur 0 963.6 -- 98
2020-11-11 23:00:00 9.9 3 Sur 6 Noroeste 0 963.6 -- 94
2020-11-11 22:00:00 11.3 2 Sur 6 Este 0 963.2 -- 90
2020-11-11 21:00:00 11.7 0 Calma 4 Sur 0 963.1 -- 93
2020-11-11 20:00:00 12.1 2 Este 4 Sudeste 0 963 -- 90
2020-11-11 19:00:00 12.9 3 Sudeste 6 Sur 0 962.9 -- 85
2020-11-11 18:00:00 14.3 3 Nordeste 10 Sudeste 0 962.8 -- 79
2020-11-11 17:00:00 16 5 Sudoeste 12 Sur 0 962.6 -- 74
2020-11-11 16:00:00 17.4 4 Sudeste 8 Este 0 962.8 -- 68
2020-11-11 15:00:00 16.5 3 Sudeste 14 Sudeste 0 962.9 -- 73
2020-11-11 14:00:00 14.1 7 Este 16 Este 0 963.4 -- 81
2020-11-11 13:00:00 11.7 11 Este 21 Este 0 964.2 -- 90
2020-11-11 12:00:00 9.8 13 Este 21 Este 0 964.9 -- 97
2020-11-11 11:00:00 8.2 10 Este 24 Este 0 965.3 -- 100
2020-11-11 10:00:00 6.3 19 Este 28 Este 0 965.3 -- 99
2020-11-11 09:00:00 4.7 3 Sur 9 Sudeste 0 965.5 -- 100
2020-11-11 08:00:00 3.4 2 Este 5 Sudeste 0 965 -- 100
2020-11-11 07:00:00 4.2 0 Calma 9 Este 0 965.1 -- 100
2020-11-11 06:00:00 4.7 3 Sur 9 Este 0 965.2 -- 100
2020-11-11 05:00:00 5.8 0 Calma 11 Este 0 965.4 -- 99
2020-11-11 04:00:00 6.7 10 Este 14 Este 0 965.4 -- 100
2020-11-11 03:00:00 7.2 4 Este 10 Sudeste 0 965.9 -- 100
2020-11-11 02:00:00 7.1 0 Calma 6 Este 0 966.3 -- 99
2020-11-11 01:00:00 7.9 0 Calma 8 Sudoeste 0 966.5 -- 98
2020-11-11 00:00:00 8.5 3 Este 12 Este 0 965.9 -- 97
2020-11-10 23:00:00 9.5 2 Este 6 Sur 0 966.4 -- 95
2020-11-10 22:00:00 10.4 0 Calma 5 Nordeste 0 966.2 -- 92
2020-11-10 21:00:00 11.4 0 Calma 8 Sudeste 0 965.9 -- 88
2020-11-10 20:00:00 11.7 5 Este 7 Este 0 965.9 -- 85
2020-11-10 19:00:00 12.6 3 Norte 8 Este 0 965.9 -- 77
2020-11-10 18:00:00 14.6 6 Este 12 Este 0 965.6 -- 73
2020-11-10 17:00:00 16.1 7 Este 13 Sudeste 0 965.7 -- 64
2020-11-10 16:00:00 16.2 6 Sudeste 13 Sudeste 0 965.5 -- 74
2020-11-10 15:00:00 14.5 9 Sudeste 14 Sudeste 0 965.9 -- 81
2020-11-10 14:00:00 12.7 8 Sudeste 13 Sudeste 0 966.5 -- 90
2020-11-10 13:00:00 10.6 9 Sudeste 13 Este 0 967 -- 96
2020-11-10 12:00:00 9.5 7 Este 14 Este 0 967.6 -- 100
2020-11-10 11:00:00 8.5 10 Este 14 Este 0 967.4 -- 100
2020-11-10 10:00:00 7.9 7 Sudeste 11 Este 0 967.3 -- 100
2020-11-10 09:00:00 7.1 5 Sur 10 Este 0 966.7 -- 100
2020-11-10 08:00:00 6.4 3 Sudeste 9 Sudeste 0.2 965.7 -- 100
2020-11-10 07:00:00 6.3 7 Sudeste 10 Este 0 965.5 -- 100
2020-11-10 06:00:00 6.8 0 Calma 5 Sudeste 0 965.2 -- 100
2020-11-10 05:00:00 7.4 5 Este 6 Este 0 964.7 -- 98
2020-11-10 04:00:00 8.8 4 Sudeste 7 Sudeste 0 964.7 -- 95
2020-11-10 03:00:00 9.3 3 Noroeste 8 Noroeste 0 964.8 -- 97
2020-11-10 02:00:00 9.7 5 Noroeste 7 Noroeste 0 964.8 -- 94
2020-11-10 01:00:00 10.2 2 Oeste 3 Sudoeste 0 964.6 -- 93
2020-11-10 00:00:00 10.6 2 Oeste 5 Norte 0 964.8 -- 91
2020-11-09 23:00:00 10.9 4 Oeste 6 Noroeste 0 964.6 -- 90
2020-11-09 22:00:00 11.6 0 Calma 3 Sudeste 0 964.4 -- 87
2020-11-09 21:00:00 12.3 0 Calma 3 Noroeste 0 964 -- 83
2020-11-09 20:00:00 13.2 3 Norte 8 Norte 0 963.9 -- 81
2020-11-09 19:00:00 13.7 7 Noroeste 9 Noroeste 0 963.2 -- 78
2020-11-09 18:00:00 16.5 7 Oeste 14 Oeste 0 962.6 -- 64
2020-11-09 17:00:00 18.1 8 Oeste 22 Noroeste 0 962.2 -- 61
2020-11-09 16:00:00 18.3 16 Noroeste 21 Noroeste 0 962 -- 63
2020-11-09 15:00:00 16.1 4 Noroeste 19 Noroeste 0 962.1 -- 76
2020-11-09 14:00:00 16.7 6 Oeste 15 Norte 0 962.1 -- 75
2020-11-09 13:00:00 16.5 9 Noroeste 14 Noroeste 0 962.5 -- 74
2020-11-09 12:00:00 15.1 5 Este 13 Sur 0 963 -- 87
2020-11-09 11:00:00 12.5 7 Sudeste 10 Este 0 962.9 -- 97
2020-11-09 10:00:00 11.1 0 Calma 6 Sur 0 962.8 -- 100
2020-11-09 09:00:00 11 2 Nordeste 9 Este 0 962.2 -- 100
2020-11-09 08:00:00 10.4 2 Norte 14 Este 0 961.4 -- 100
2020-11-09 07:00:00 10.4 4 Sur 13 Este 0 961.1 -- 100
2020-11-09 06:00:00 10.4 9 Este 14 Sudeste 0.4 960.9 -- 100
2020-11-09 05:00:00 10.5 4 Sudeste 7 Sudoeste 1.6 961.1 -- 99
2020-11-09 04:00:00 10.8 5 Noroeste 12 Noroeste 1.4 961 -- 97
2020-11-09 03:00:00 11.1 3 Sur 6 Norte 0 960.8 -- 92
2020-11-09 02:00:00 12.1 4 Este 6 Este 0 960.6 -- 84
2020-11-09 01:00:00 12 3 Este 14 Este 0 960.9 -- 82
2020-11-09 00:00:00 11.2 8 Este 11 Este 0 960.9 -- 86
2020-11-08 23:00:00 11.7 3 Sur 10 Este 0 961.2 -- 82
2020-11-08 22:00:00 12.3 9 Este 11 Este 0 961.2 -- 79
2020-11-08 21:00:00 12.9 7 Este 13 Sudeste 0 961 -- 76
2020-11-08 20:00:00 13.5 8 Sudeste 13 Sudeste 0 961 -- 72
2020-11-08 19:00:00 14.5 8 Este 10 Este 0 960.8 -- 67
2020-11-08 18:00:00 17.1 6 Sur 12 Sur 0 960.6 -- 56
2020-11-08 17:00:00 18 7 Sudoeste 13 Sudoeste 0 960.7 -- 53
2020-11-08 16:00:00 18.7 9 Sur 14 Sudoeste 0 960.8 -- 50
2020-11-08 15:00:00 18.7 12 Sudoeste 21 Sur 0 960.9 -- 48
2020-11-08 14:00:00 17.5 3 Sudoeste 12 Oeste 0 961.4 -- 58
2020-11-08 13:00:00 16.7 4 Este 12 Sudeste 0 962.2 -- 65
2020-11-08 12:00:00 16.2 7 Sudeste 16 Este 0 963 -- 70
2020-11-08 11:00:00 13.6 14 Sudeste 18 Este 0 963.2 -- 79
2020-11-08 10:00:00 10.8 3 Oeste 5 Oeste 0 963.2 -- 96
2020-11-08 09:00:00 8.6 3 Este 10 Sudeste 0 963 -- 96
2020-11-08 08:00:00 7 2 Este 6 Este 0 962.7 -- 100
2020-11-08 07:00:00 7.1 0 Calma 5 Sudoeste 0 962.6 -- 99
2020-11-08 06:00:00 7.4 2 Sudeste 4 Sur 0 962.5 -- 98
2020-11-08 05:00:00 7.7 3 Este 5 Este 0 962.3 -- 97
2020-11-08 04:00:00 8 3 Sudeste 8 Sudeste 0 962.6 -- 96
2020-11-08 03:00:00 8.3 0 Calma 6 Sudoeste 0 962.9 -- 95
2020-11-08 02:00:00 9.6 3 Sudeste 12 Este 0 963 -- 89
2020-11-08 01:00:00 10 5 Norte 7 Norte 0 963.2 -- 88
2020-11-08 00:00:00 10.6 0 Calma 8 Sur 0 963 -- 85
2020-11-07 23:00:00 11.1 5 Sur 15 Noroeste 0 962.9 -- 84
2020-11-07 22:00:00 11.3 7 Noroeste 13 Oeste 0 962.7 -- 83
2020-11-07 21:00:00 12.4 8 Sudoeste 14 Sudoeste 0 962.5 -- 80
2020-11-07 20:00:00 12.5 2 Sudeste 7 Oeste 0 962.2 -- 85
2020-11-07 19:00:00 13.3 4 Oeste 12 Oeste 0 961.7 -- 81
2020-11-07 18:00:00 14.6 9 Oeste 22 Noroeste 0 961.2 -- 80
2020-11-07 17:00:00 15.1 19 Oeste 29 Oeste 0 960.6 -- 79
2020-11-07 16:00:00 14.8 20 Noroeste 30 Sudoeste 0 959.9 -- 81
2020-11-07 15:00:00 16.6 17 Oeste 35 Oeste 0 959.3 -- 66
2020-11-07 14:00:00 16.7 18 Noroeste 27 Oeste 0 959 -- 71
2020-11-07 13:00:00 14.1 8 Oeste 21 Oeste 1.4 958.8 -- 89
2020-11-07 12:00:00 14.9 11 Oeste 24 Oeste 0 958.8 -- 78
2020-11-07 11:00:00 14 12 Oeste 23 Oeste 0 958.1 -- 81
2020-11-07 10:00:00 14.4 10 Sudoeste 21 Sur 0 956.8 -- 76
2020-11-07 09:00:00 12.9 8 Oeste 17 Sudoeste 0 955.6 -- 79
2020-11-07 08:00:00 12.7 12 Sur 21 Sur 0 954.7 -- 79
2020-11-07 07:00:00 13 6 Oeste 25 Sudoeste 0 953.9 -- 81
2020-11-07 06:00:00 13.8 16 Sudoeste 43 Sur 0 953.4 -- 80
2020-11-07 05:00:00 14.1 25 Sur 38 Sur 0 953.2 -- 82
2020-11-07 04:00:00 13.1 14 Sudeste 22 Este 0 953.6 -- 88
2020-11-07 03:00:00 13 12 Este 30 Sudeste 0 953.3 -- 91
2020-11-07 02:00:00 13.1 20 Sudeste 32 Sur 3.2 953.6 -- 91
2020-11-07 01:00:00 13.8 19 Sur 28 Oeste 1.6 955.5 -- 88
2020-11-07 00:00:00 15.6 11 Sur 33 Sudeste 0.8 955.8 -- 87
2020-11-06 23:00:00 16.9 18 Sudeste 34 Sudeste 0 955 -- 82
2020-11-06 22:00:00 17.5 26 Sudeste 43 Sudeste 0 954.1 -- 79
2020-11-06 21:00:00 18 26 Sudeste 57 Sudeste 0 954.5 -- 76
2020-11-06 20:00:00 18.1 21 Sudeste 51 Sur 0 954.3 -- 77
2020-11-06 19:00:00 18.7 30 Sudeste 61 Sudeste 0 953.4 -- 73
2020-11-06 18:00:00 19 35 Sudeste 58 Sudeste 0 951.7 -- 73
2020-11-06 17:00:00 19.6 30 Sudeste 59 Sudeste 0 951.9 -- 67
2020-11-06 16:00:00 19.9 31 Sudeste 57 Sudeste 0 952.7 -- 64
2020-11-06 15:00:00 19.9 35 Sudeste 65 Sudeste 0 952.6 -- 65
2020-11-06 14:00:00 19.6 37 Sudeste 69 Sudeste 0 953.1 -- 68
2020-11-06 13:00:00 19.3 41 Sudeste 69 Sudeste 0 953.6 -- 70
2020-11-06 12:00:00 19 38 Sudeste 73 Sudeste 0 954.7 -- 72
2020-11-06 11:00:00 17.6 34 Sudeste 58 Este 0 955.3 -1.4 77
2020-11-06 10:00:00 16.3 29 Sudeste 52 Este 0 956.1 -- 83
2020-11-06 09:00:00 14.7 18 Este 33 Este 0 956.4 -- 89
2020-11-06 08:00:00 14.4 18 Este 34 Este 0 956.7 -- 88
2020-11-06 07:00:00 14.1 15 Este 24 Este 0 957.3 -- 90
2020-11-06 06:00:00 13.8 14 Este 22 Este 0 957.6 -- 90
2020-11-06 05:00:00 13.8 9 Este 38 Sudeste 0 957.3 -- 88
2020-11-06 04:00:00 13.8 23 Este 42 Sudeste 0 957.6 -- 87
2020-11-06 03:00:00 13.9 23 Sudeste 46 Este 0 957.1 -- 87
2020-11-06 02:00:00 14.1 23 Sudeste 49 Sudeste 0 957.1 -- 85
2020-11-06 01:00:00 13.5 12 Este 51 Sudeste 0 957 -- 89
2020-11-06 00:00:00 14.5 31 Sudeste 51 Sudeste 0 957 -- 85
2020-11-05 23:00:00 14.3 24 Sudeste 49 Sudeste 0 957.6 -- 88
2020-11-05 22:00:00 13.3 13 Este 21 Sudeste 0 957.8 -- 92
2020-11-05 21:00:00 13.5 10 Nordeste 18 Nordeste 0 957.6 -- 89
2020-11-05 20:00:00 13.7 8 Este 32 Este 0 957.3 -- 88
2020-11-05 19:00:00 14.2 18 Este 32 Este 0 956.5 -- 87
2020-11-05 18:00:00 13.7 20 Este 31 Este 0 956.3 -- 91
2020-11-05 17:00:00 12.7 14 Este 26 Este 1.2 956.8 -- 96
2020-11-05 16:00:00 13.1 15 Este 32 Sudeste 0.8 957.1 -- 92
2020-11-05 15:00:00 13.3 13 Sudeste 37 Sudeste 0.8 957.2 -- 91
2020-11-05 14:00:00 14.3 21 Sudeste 46 Sudeste 0 957.1 -- 82
2020-11-05 13:00:00 14.9 22 Sudeste 42 Sudeste 0 957.6 -- 79
2020-11-05 12:00:00 14.7 23 Sudeste 42 Este 0 958.1 -- 79
2020-11-05 11:00:00 14 19 Sudeste 47 Este 0 958.5 -- 83
2020-11-05 10:00:00 13.5 35 Sudeste 59 Este 0 958.5 -- 84
2020-11-05 09:00:00 12.7 30 Sudeste 48 Sudeste 0 957.7 -- 88
2020-11-05 08:00:00 11.2 18 Este 31 Este 0 957.7 -- 93
2020-11-05 07:00:00 10.3 18 Este 27 Este 1.8 957.3 -- 93
2020-11-05 06:00:00 10.2 16 Nordeste 28 Este 0.2 957.1 -- 90
2020-11-05 05:00:00 10.7 18 Nordeste 32 Este 0 957.4 -- 86
2020-11-05 04:00:00 10.9 19 Este 36 Nordeste 0 957.7 -- 86
2020-11-05 03:00:00 11.2 21 Este 34 Este 0 957.1 -- 87
2020-11-05 02:00:00 11.4 21 Este 43 Este 0 957.3 -- 90
2020-11-05 01:00:00 11.9 24 Este 43 Este 0 957.6 -- 88
2020-11-05 00:00:00 11.6 23 Este 39 Este 0 957.9 -- 90
2020-11-04 23:00:00 11.5 25 Este 39 Este 0 957.5 -- 90
2020-11-04 22:00:00 11.3 18 Este 30 Este 0.2 957.1 -- 94
2020-11-04 21:00:00 11.7 22 Este 40 Sudeste 0 957 -- 91
2020-11-04 20:00:00 12.4 19 Este 36 Este 0 956.5 -- 85
2020-11-04 19:00:00 12.4 19 Este 37 Este 0 956.2 -- 88
2020-11-04 18:00:00 12.4 14 Este 27 Este 0 955.8 -- 91
2020-11-04 17:00:00 12.5 17 Este 29 Nordeste 0 955.8 -- 92
2020-11-04 16:00:00 12.1 19 Este 33 Este 0 955.7 -- 91
2020-11-04 15:00:00 11.2 17 Este 28 Este 0 956 -- 92
2020-11-04 14:00:00 10.6 14 Este 26 Este 0.2 956.8 -- 91
2020-11-04 13:00:00 10.2 12 Este 24 Nordeste 0 957.7 -- 84
2020-11-04 12:00:00 10.5 15 Este 26 Nordeste 0 958.4 -- 80
2020-11-04 11:00:00 10.7 17 Este 29 Este 0 958.9 -0.5 78
2020-11-04 10:00:00 9.9 18 Este 26 Este 0 959.4 -- 78
2020-11-04 09:00:00 9.6 11 Nordeste 21 Este 0 959.3 -- 79
2020-11-04 08:00:00 9.5 7 Nordeste 15 Este 0 959.4 -- 82
2020-11-04 07:00:00 9.7 6 Este 19 Este 0 959.7 -- 82
2020-11-04 06:00:00 9.6 9 Nordeste 20 Este 0 960.1 -- 81
2020-11-04 05:00:00 10.2 9 Nordeste 18 Nordeste 0 960.8 -- 80
2020-11-04 04:00:00 10.1 6 Nordeste 10 Nordeste 0 961.2 -- 87
2020-11-04 03:00:00 11 4 Este 11 Este 0 961.9 -- 82
2020-11-04 02:00:00 11.6 6 Este 12 Este 0 962.7 -- 80
2020-11-04 01:00:00 11.6 3 Este 8 Este 0 963.7 -- 83
2020-11-04 00:00:00 11.7 4 Sudeste 20 Este 0 964.2 -- 81
2020-11-03 23:00:00 11.6 10 Este 18 Sudeste 0 964.4 -- 83
2020-11-03 22:00:00 11.4 8 Este 29 Nordeste 0 964.8 -- 86
2020-11-03 21:00:00 12.1 18 Nordeste 32 Nordeste 0 964.9 -- 84
2020-11-03 20:00:00 12.4 22 Nordeste 35 Nordeste 0 964.9 -- 86
2020-11-03 19:00:00 13.7 17 Nordeste 27 Nordeste 0 964.7 -- 89
2020-11-03 18:00:00 15.1 7 Nordeste 12 Nordeste 0.2 964.2 -- 90
2020-11-03 17:00:00 15.4 7 Nordeste 22 Nordeste 0 963.9 -- 90
2020-11-03 16:00:00 15.4 12 Norte 23 Nordeste 0.4 963.8 -- 92
2020-11-03 15:00:00 16.2 12 Norte 22 Norte 0 963.7 -- 93
2020-11-03 14:00:00 16.5 13 Norte 20 Norte 0 964 -- 85
2020-11-03 13:00:00 16.9 5 Nordeste 11 Este 0 964.1 -- 81
2020-11-03 12:00:00 16 9 Sudeste 13 Este 0 964.4 -- 85
2020-11-03 11:00:00 15.8 7 Sudeste 10 Sudeste 0 964.4 -- 86
2020-11-03 10:00:00 15.2 4 Sudoeste 8 Oeste 0 964 -- 92
2020-11-03 09:00:00 14.3 4 Sur 10 Este 0 963.6 -- 95
2020-11-03 08:00:00 13.8 5 Este 8 Este 0 963 -- 95
2020-11-03 07:00:00 13.9 4 Nordeste 11 Este 0 963 -- 94
2020-11-03 06:00:00 14.2 0 Calma 7 Sudoeste 0 962.7 -- 93
2020-11-03 05:00:00 14.9 4 Noroeste 7 Oeste 0 962.6 -- 91
2020-11-03 04:00:00 15.4 5 Noroeste 8 Oeste 0 962.5 -- 90
2020-11-03 03:00:00 15.4 4 Noroeste 9 Noroeste 0 962.6 -- 89
2020-11-03 02:00:00 15.7 3 Noroeste 6 Oeste 0 962.6 -- 87
2020-11-03 01:00:00 15.9 4 Noroeste 11 Oeste 0 962.6 -- 86
2020-11-03 00:00:00 15.8 8 Noroeste 10 Noroeste 0 963 -- 85
2020-11-02 23:00:00 16.1 3 Oeste 10 Noroeste 0 963 -- 83
2020-11-02 22:00:00 16.9 6 Oeste 16 Oeste 0 963.2 -- 80
2020-11-02 21:00:00 17.2 8 Oeste 12 Oeste 0 963.1 -- 79
2020-11-02 20:00:00 17.7 7 Oeste 13 Noroeste 0 962.9 -- 74
2020-11-02 19:00:00 18.5 9 Oeste 16 Noroeste 0 962.4 -- 71
2020-11-02 18:00:00 19.6 10 Noroeste 17 Noroeste 0 961.9 -- 65
2020-11-02 17:00:00 20.8 12 Noroeste 17 Noroeste 0 961.7 -- 62
2020-11-02 16:00:00 21.8 7 Noroeste 14 Noroeste 0 961.6 -- 56
2020-11-02 15:00:00 21.8 7 Noroeste 15 Norte 0 961.9 -- 55
2020-11-02 14:00:00 23.1 12 Norte 17 Noroeste 0 962.5 -- 52
2020-11-02 13:00:00 21.9 6 Sudoeste 12 Sudoeste 0 963.3 -- 55
2020-11-02 12:00:00 19.7 6 Sudeste 12 Sudeste 0 964.1 -- 60
2020-11-02 11:00:00 15.7 5 Sudeste 12 Sudeste 0 964.1 -- 72
2020-11-02 10:00:00 14 7 Sudeste 12 Este 0 964.1 -- 76
2020-11-02 09:00:00 10.4 7 Sudeste 11 Sudeste 0 963.7 -- 90
2020-11-02 08:00:00 8 3 Sudeste 6 Sudeste 0 963.4 -- 97
2020-11-02 07:00:00 8.3 0 Calma 7 Este 0 963.2 -- 98
2020-11-02 06:00:00 8.7 5 Este 11 Sudeste 0 963.1 -- 96
2020-11-02 05:00:00 10 2 Este 7 Sudeste 0 963 -- 95
2020-11-02 04:00:00 10.9 3 Este 6 Este 0 963 -- 94
2020-11-02 03:00:00 11.7 4 Este 6 Sudeste 0 963.3 -- 92
2020-11-02 02:00:00 12.2 3 Sudeste 5 Sudeste 0 963.4 -- 90
2020-11-02 01:00:00 13.5 0 Calma 3 Noroeste 0 963.7 -- 86
2020-11-02 00:00:00 13.9 3 Sudoeste 4 Sur 0 963.9 -- 83
2020-11-01 23:00:00 15.1 0 Calma 3 Norte 0 964 -- 79
2020-11-01 22:00:00 15.3 0 Calma 4 Norte 0 963.9 -- 77
2020-11-01 21:00:00 15.7 0 Calma 5 Sur 0 963.6 -- 75
2020-11-01 20:00:00 16.7 3 Sur 7 Noroeste 0 963.7 -- 69
2020-11-01 19:00:00 17.9 8 Noroeste 13 Noroeste 0 963.5 -- 63
2020-11-01 18:00:00 20.7 7 Oeste 17 Noroeste 0 963.4 -- 54
2020-11-01 17:00:00 22 9 Oeste 15 Noroeste 0 963.4 -- 48
2020-11-01 16:00:00 22.1 9 Oeste 21 Noroeste 0 963.6 -- 49
2020-11-01 15:00:00 22.6 12 Oeste 19 Noroeste 0 963.9 -- 51
2020-11-01 14:00:00 21.9 12 Noroeste 19 Oeste 0 964.4 -- 53
2020-11-01 13:00:00 21.5 9 Sudoeste 15 Sudoeste 0 965.1 -- 59
2020-11-01 12:00:00 19.4 3 Sudoeste 10 Sudeste 0 966 -- 62
2020-11-01 11:00:00 16.2 5 Sudeste 8 Sudeste 0 966.3 -- 67
2020-11-01 10:00:00 13 5 Sudeste 12 Sudeste 0 966.2 -- 80
2020-11-01 09:00:00 10.1 3 Sudeste 6 Sudeste 0 965.7 -- 88
2020-11-01 08:00:00 7.9 6 Este 10 Este 0 965.3 -- 95
2020-11-01 07:00:00 8.2 4 Norte 10 Este 0 964.9 -- 97
2020-11-01 06:00:00 8.5 6 Este 10 Este 0 964.9 -- 92
2020-11-01 05:00:00 9.7 0 Calma 7 Este 0 964.6 -- 92
2020-11-01 04:00:00 10.8 3 Sudoeste 9 Este 0 964.9 -- 89
2020-11-01 03:00:00 12.2 3 Este 6 Este 0 965.3 -- 84
2020-11-01 02:00:00 13.1 0 Calma 4 Noroeste 0 965.5 -- 81
2020-11-01 01:00:00 14.1 0 Calma 8 Noroeste 0 965.5 -- 77
2020-11-01 00:00:00 14.9 6 Norte 8 Norte 0 965.4 -- 73
2020-10-31 23:00:00 14.9 5 Noroeste 10 Noroeste 0 965.2 -- 73
2020-10-31 22:00:00 16.1 3 Noroeste 8 Oeste 0 964.9 -- 68
2020-10-31 21:00:00 16.6 2 Sudoeste 5 Sudoeste 0 965 -- 64
2020-10-31 20:00:00 17.8 3 Oeste 12 Noroeste 0 964.7 -- 60
2020-10-31 19:00:00 19 8 Noroeste 12 Noroeste 0 964.5 -- 55
2020-10-31 18:00:00 22.4 8 Noroeste 16 Noroeste 0 963.9 -- 44
2020-10-31 17:00:00 24.2 9 Noroeste 15 Noroeste 0 963.8 -- 39
2020-10-31 16:00:00 25 9 Noroeste 21 Noroeste 0 963.8 -- 36
2020-10-31 15:00:00 24.6 8 Noroeste 18 Norte 0 964 -- 39
2020-10-31 14:00:00 22.5 8 Sudeste 20 Sudeste 0 964.4 -- 47
2020-10-31 13:00:00 20.1 12 Sudeste 15 Sudeste 0 965.4 -- 54
2020-10-31 12:00:00 18 6 Sur 10 Sudeste 0 966.6 -- 62
2020-10-31 11:00:00 15.7 8 Sudeste 15 Sudeste 0 966.4 -- 68
2020-10-31 10:00:00 12.3 8 Sudeste 14 Sudeste 0 966.6 -- 79
2020-10-31 09:00:00 9.3 5 Este 13 Sudeste 0 966.5 -- 90
2020-10-31 08:00:00 7.9 6 Sudeste 11 Sudeste 0 966 -- 94
2020-10-31 07:00:00 8.6 5 Nordeste 11 Este 0 965.7 -- 96
2020-10-31 06:00:00 8.7 9 Sudeste 11 Sudeste 0 965.4 -- 94
2020-10-31 05:00:00 8.9 6 Sudeste 9 Este 0 965.2 -- 93
2020-10-31 04:00:00 9.6 6 Este 8 Este 0 965.2 -- 90
2020-10-31 03:00:00 9.7 6 Este 12 Este 0 965.3 -- 89
2020-10-31 02:00:00 10.4 5 Este 10 Este 0 965.4 -- 87
2020-10-31 01:00:00 11.4 6 Este 9 Sudeste 0 965.4 -- 85
2020-10-31 00:00:00 12.2 5 Sudeste 7 Este 0 965.5 -- 81
2020-10-30 23:00:00 13.2 3 Este 10 Este 0 965.5 -- 77
2020-10-30 22:00:00 14.1 8 Este 11 Sudeste 0 965.3 -- 72
2020-10-30 21:00:00 16.2 0 Calma 4 Sudeste 0 965.1 -- 63
2020-10-30 20:00:00 17.1 4 Este 8 Este 0 964.9 -- 61
2020-10-30 19:00:00 18 6 Este 9 Este 0 964.6 -- 59
2020-10-30 18:00:00 20.7 7 Sudeste 12 Sudeste 0 964.4 -- 51
2020-10-30 17:00:00 22.2 6 Sudeste 13 Sudeste 0 964.5 -- 48
2020-10-30 16:00:00 22.3 8 Sudeste 15 Este 0 964.7 -- 48
2020-10-30 15:00:00 21.1 9 Sudeste 19 Sudeste 0 965.1 -- 52
2020-10-30 14:00:00 19.9 8 Sudeste 17 Este 0 965.7 -- 56
2020-10-30 13:00:00 17.9 8 Sudeste 17 Este 0 966.3 -- 60
2020-10-30 12:00:00 15.5 10 Sudeste 17 Sudeste 0 967.1 -- 67
2020-10-30 11:00:00 12.5 9 Sudeste 15 Sudeste 0 967.3 -- 76
2020-10-30 10:00:00 9.5 11 Sudeste 17 Este 0 967.5 -- 87
2020-10-30 09:00:00 6.4 12 Este 18 Este 0 967.2 -- 99
2020-10-30 08:00:00 5.4 5 Este 11 Este 0 966.7 -- 99
2020-10-30 07:00:00 6.1 8 Este 15 Este 0 966.6 -- 98
2020-10-30 06:00:00 6.7 8 Este 17 Este 0 966.4 -- 97
2020-10-30 05:00:00 7.5 10 Este 14 Este 0 966.3 -- 96
2020-10-30 04:00:00 7.8 10 Este 15 Este 0 966.4 -- 95
2020-10-30 03:00:00 8.4 12 Este 18 Este 0 966.5 -- 94
2020-10-30 02:00:00 9 11 Este 14 Este 0 966.4 -- 92
2020-10-30 01:00:00 10 6 Este 15 Este 0 966.5 -- 88
2020-10-30 00:00:00 11.2 8 Este 11 Este 0 966.6 -- 84
2020-10-29 23:00:00 11.8 6 Este 9 Este 0 966.8 -- 81
2020-10-29 22:00:00 12.3 6 Este 10 Este 0 966.7 -- 79
2020-10-29 21:00:00 13.2 5 Este 9 Nordeste 0 966.4 -- 76
2020-10-29 20:00:00 14.1 7 Nordeste 11 Nordeste 0 966.3 -- 72
2020-10-29 19:00:00 15.2 8 Nordeste 11 Nordeste 0 966 -- 68
2020-10-29 18:00:00 18 7 Este 13 Nordeste 0 965.7 -- 58
2020-10-29 17:00:00 19.1 7 Este 15 Norte 0 965.7 -- 54
2020-10-29 16:00:00 19 8 Nordeste 17 Este 0 965.6 -- 55
2020-10-29 15:00:00 19.2 7 Este 19 Nordeste 0 965.8 -- 54
2020-10-29 14:00:00 18.8 10 Nordeste 17 Nordeste 0 966.2 -- 56
2020-10-29 13:00:00 18.7 6 Sur 14 Sudeste 0 966.8 -- 54
2020-10-29 12:00:00 18 8 Sur 18 Sudeste 0 967.4 -- 57
2020-10-29 11:00:00 16.4 12 Sudeste 18 Sudeste 0 967.7 -- 71
2020-10-29 10:00:00 15.1 8 Sudeste 13 Sudeste 0 967.6 -- 80
2020-10-29 09:00:00 13.2 7 Sudeste 11 Este 0 967 -- 90
2020-10-29 08:00:00 11.8 3 Sudeste 7 Este 0 966.6 -- 96
2020-10-29 07:00:00 11.9 4 Este 9 Sudeste 0 965.9 -- 95
2020-10-29 06:00:00 11.6 2 Sur 10 Este 0 965.6 -- 98
2020-10-29 05:00:00 11.3 4 Este 6 Sur 0 965.2 -- 98
2020-10-29 04:00:00 11.6 5 Sur 8 Este 0 965 -- 97
2020-10-29 03:00:00 12 4 Este 8 Este 0 965 -- 97
2020-10-29 02:00:00 12.2 6 Este 9 Este 0 965.3 -- 96
2020-10-29 01:00:00 12.2 2 Este 6 Este 0 965.1 -- 95
2020-10-29 00:00:00 12.6 5 Sur 8 Norte 0 964.9 -- 94
2020-10-28 23:00:00 13 0 Calma 5 Nordeste 0 964.9 -- 93
2020-10-28 22:00:00 13 4 Sur 6 Sur 0 964.6 -- 91
2020-10-28 21:00:00 13.3 4 Norte 10 Oeste 0 964.6 -- 91
2020-10-28 20:00:00 14.7 4 Oeste 12 Noroeste 0 964.2 -- 85
2020-10-28 19:00:00 15.3 6 Noroeste 22 Norte 0 963.7 -- 83
2020-10-28 18:00:00 15.8 18 Noroeste 24 Noroeste 0 962.8 -- 80
2020-10-28 17:00:00 17 12 Noroeste 21 Noroeste 0 962.4 -- 76
2020-10-28 16:00:00 18.2 12 Noroeste 19 Noroeste 0 962.4 -- 69
2020-10-28 15:00:00 18.3 11 Oeste 25 Oeste 0 962.5 -- 67
2020-10-28 14:00:00 16.8 14 Oeste 23 Oeste 0 963 -- 72
2020-10-28 13:00:00 15.7 8 Noroeste 16 Oeste 0 963.4 -- 75
2020-10-28 12:00:00 14.8 9 Oeste 18 Oeste 0 963.6 -- 77
2020-10-28 11:00:00 13.7 12 Oeste 20 Noroeste 0 963.3 -- 82
2020-10-28 10:00:00 13.4 6 Oeste 13 Oeste 0 962.9 -- 83
2020-10-28 09:00:00 12.7 11 Oeste 17 Noroeste 0 962.5 -- 85
2020-10-28 08:00:00 12.2 5 Oeste 13 Sudoeste 0 961.5 -- 87
2020-10-28 07:00:00 12.2 9 Oeste 17 Oeste 0 961 -- 86
2020-10-28 06:00:00 11.8 10 Oeste 15 Oeste 0 960.8 -- 86
2020-10-28 05:00:00 10.9 8 Oeste 11 Oeste 0 960.4 -- 86
2020-10-28 04:00:00 10.2 7 Oeste 11 Oeste 0 960.4 -- 86
2020-10-28 03:00:00 10.2 8 Noroeste 13 Noroeste 0 960.4 -- 85
2020-10-28 02:00:00 10.4 8 Oeste 11 Oeste 0 960.4 -- 84
2020-10-28 01:00:00 11.3 8 Oeste 15 Oeste 0 960.8 -- 80
2020-10-28 00:00:00 11.5 8 Oeste 14 Oeste 0 961 -- 79
2020-10-27 23:00:00 11.3 9 Oeste 15 Oeste 0 961 -- 79
2020-10-27 22:00:00 10.9 9 Oeste 15 Oeste 0 960.5 -- 80
2020-10-27 21:00:00 11.5 8 Oeste 14 Oeste 0 960.4 -- 79
2020-10-27 20:00:00 12 12 Oeste 22 Oeste 0 960.4 -- 76
2020-10-27 19:00:00 12.3 13 Oeste 36 Oeste 0 960 -- 74
2020-10-27 18:00:00 13.6 20 Oeste 37 Noroeste 0 959.6 -- 65
2020-10-27 17:00:00 15.2 24 Oeste 36 Oeste 0 959.2 -- 60
2020-10-27 16:00:00 15.8 21 Oeste 35 Oeste 0 959.2 -- 56
2020-10-27 15:00:00 15.1 22 Oeste 36 Oeste 0 959.6 -- 56
2020-10-27 14:00:00 15 23 Oeste 37 Oeste 0 960 -- 54
2020-10-27 13:00:00 14 20 Oeste 32 Oeste 0 960.6 -- 55
2020-10-27 12:00:00 13 15 Oeste 26 Noroeste 0 961.2 -- 63
2020-10-27 11:00:00 11.5 15 Oeste 21 Noroeste 0 961.2 -- 65
2020-10-27 10:00:00 9.2 4 Sudoeste 8 Sudoeste 0 961.2 -- 78
2020-10-27 09:00:00 6.7 3 Sudoeste 6 Norte 0 961 -- 86
2020-10-27 08:00:00 5.1 3 Norte 5 Norte 0 960.3 -- 90
2020-10-27 07:00:00 5 0 Calma 6 Este 0 960.2 -- 90
2020-10-27 06:00:00 5.6 3 Sur 5 Sur 0 960.1 -- 87
2020-10-27 05:00:00 6.7 2 Sur -- -- 0 959.9 -- 80
2020-10-27 04:00:00 7.3 0 Calma 5 Norte 0 960.2 -- 76
2020-10-27 03:00:00 6.9 4 Oeste 8 Noroeste 0 960.5 -- 77
2020-10-27 02:00:00 7.3 4 Noroeste 7 Oeste 0 960.7 -- 76
2020-10-27 01:00:00 7.6 4 Noroeste 8 Oeste 0 960.7 -- 76
2020-10-27 00:00:00 8 4 Noroeste 5 Noroeste 0 961.3 -- 76